createdAt,value
2018-08-16T00:01:43.335Z,2.30
2018-08-16T00:06:46.745Z,2.27
2018-08-16T00:11:50.013Z,2.23
2018-08-16T00:16:53.383Z,2.33
2018-08-16T00:21:56.710Z,2.33
2018-08-16T00:27:00.063Z,2.40
2018-08-16T00:32:03.420Z,1.93
2018-08-16T00:37:06.730Z,2.67
2018-08-16T00:42:10.117Z,2.10
2018-08-16T00:47:13.440Z,2.27
2018-08-16T00:52:16.734Z,2.50
2018-08-16T00:57:20.047Z,2.50
2018-08-16T01:02:23.608Z,2.53
2018-08-16T01:07:26.978Z,2.33
2018-08-16T01:12:30.333Z,2.23
2018-08-16T01:17:33.724Z,2.40
2018-08-16T01:22:37.171Z,2.30
2018-08-16T01:27:40.532Z,2.47
2018-08-16T01:32:43.867Z,2.40
2018-08-16T01:37:47.147Z,2.63
2018-08-16T01:42:50.470Z,2.13
2018-08-16T01:47:53.792Z,2.60
2018-08-16T01:52:57.236Z,2.57
2018-08-16T01:58:00.641Z,2.90
2018-08-16T02:03:04.010Z,2.73
2018-08-16T02:08:07.360Z,2.53
2018-08-16T02:13:10.733Z,2.90
2018-08-16T02:18:14.071Z,2.90
2018-08-16T02:23:17.465Z,2.90
2018-08-16T02:28:21.019Z,3.10
2018-08-16T02:33:24.421Z,3.13
2018-08-16T02:38:27.711Z,3.10
2018-08-16T02:43:31.029Z,2.93
2018-08-16T02:48:34.399Z,3.10
2018-08-16T02:53:37.717Z,2.87
2018-08-16T02:58:41.068Z,2.83
2018-08-16T03:03:44.409Z,2.97
2018-08-16T03:08:47.766Z,3.17
2018-08-16T03:13:51.140Z,3.30
2018-08-16T03:18:54.476Z,3.30
2018-08-16T03:23:57.843Z,3.13
2018-08-16T03:29:01.316Z,3.07
2018-08-16T03:34:04.688Z,2.83
2018-08-16T03:39:09.361Z,3.70
2018-08-16T03:44:12.709Z,2.80
2018-08-16T03:49:15.997Z,3.10
2018-08-16T03:54:19.344Z,3.10
2018-08-16T03:59:26.232Z,2.73
2018-08-16T04:04:29.573Z,3.13
2018-08-16T04:09:32.920Z,2.87
2018-08-16T04:14:36.338Z,2.80
2018-08-16T04:19:39.729Z,2.80
2018-08-16T04:24:43.111Z,3.27
2018-08-16T04:29:46.704Z,3.40
2018-08-16T04:34:50.115Z,2.90
2018-08-16T04:39:53.420Z,3.00
2018-08-16T04:44:56.902Z,2.80
2018-08-16T04:50:00.341Z,2.80
2018-08-16T04:55:04.481Z,2.57
2018-08-16T05:00:10.575Z,2.93
2018-08-16T05:05:14.045Z,2.63
2018-08-16T05:10:17.391Z,2.60
2018-08-16T05:15:20.690Z,2.47
2018-08-16T05:20:24.110Z,3.10
2018-08-16T05:25:27.523Z,2.77
2018-08-16T05:30:31.572Z,2.70
2018-08-16T05:35:34.911Z,3.10
2018-08-16T05:40:38.401Z,2.63
2018-08-16T05:45:41.891Z,2.93
2018-08-16T05:50:45.236Z,2.63
2018-08-16T05:55:48.520Z,2.73
2018-08-16T06:00:51.827Z,3.27
2018-08-16T06:05:55.231Z,2.63
2018-08-16T06:10:58.552Z,3.10
2018-08-16T06:16:01.933Z,3.13
2018-08-16T06:21:05.331Z,2.97
2018-08-16T06:26:08.891Z,3.33
2018-08-16T06:31:12.264Z,3.70
2018-08-16T06:36:15.627Z,3.53
2018-08-16T06:41:19.103Z,3.40
2018-08-16T06:46:22.626Z,3.77
2018-08-16T06:51:25.924Z,3.03
2018-08-16T06:56:29.406Z,3.33
2018-08-16T07:01:32.895Z,3.90
2018-08-16T07:06:36.240Z,3.63
2018-08-16T07:11:39.520Z,3.67
2018-08-16T07:16:42.846Z,3.90
2018-08-16T07:21:46.246Z,4.27
2018-08-16T07:26:49.555Z,4.07
2018-08-16T07:31:53.120Z,4.23
2018-08-16T07:36:56.875Z,4.37
2018-08-16T07:42:00.324Z,4.27
2018-08-16T07:47:04.070Z,3.63
2018-08-16T07:52:08.142Z,4.27
2018-08-16T07:57:11.694Z,4.73
2018-08-16T08:02:15.417Z,5.37
2018-08-16T08:07:19.069Z,5.63
2018-08-16T08:12:22.766Z,4.80
2018-08-16T08:17:26.474Z,5.93
2018-08-16T08:22:30.167Z,5.30
2018-08-16T08:27:33.936Z,5.93
2018-08-16T08:32:37.610Z,5.20
2018-08-16T08:37:52.337Z,6.53
2018-08-16T08:42:55.932Z,5.87
2018-08-16T08:47:59.589Z,5.87
2018-08-16T08:53:14.370Z,6.00
2018-08-16T08:58:29.204Z,5.80
2018-08-16T09:03:32.889Z,6.23
2018-08-16T09:08:36.534Z,6.27
2018-08-16T09:13:52.200Z,6.37
2018-08-16T09:18:56.268Z,5.50
2018-08-16T09:23:59.962Z,5.97
2018-08-16T09:30:08.705Z,5.77
2018-08-16T09:35:12.350Z,6.47
2018-08-16T09:40:16.035Z,5.67
2018-08-16T09:45:30.798Z,6.63
2018-08-16T09:50:34.461Z,6.17
2018-08-16T09:55:38.169Z,6.37
2018-08-16T10:00:47.051Z,6.57
2018-08-16T10:05:50.690Z,6.23
2018-08-16T10:10:54.300Z,5.63
2018-08-16T10:15:58.007Z,5.63
2018-08-16T10:21:01.672Z,6.10
2018-08-16T10:26:05.353Z,5.93
2018-08-16T10:31:08.996Z,5.37
2018-08-16T10:36:13.476Z,6.20
2018-08-16T10:41:17.082Z,5.73
2018-08-16T10:46:20.771Z,5.30
2018-08-16T10:51:24.378Z,5.67
2018-08-16T10:56:28.098Z,4.70
2018-08-16T11:01:31.749Z,5.60
2018-08-16T11:06:35.421Z,5.40
2018-08-16T11:11:39.506Z,5.57
2018-08-16T11:16:43.080Z,4.83
2018-08-16T11:21:46.758Z,5.33
2018-08-16T11:26:55.055Z,5.17
2018-08-16T11:31:58.790Z,5.30
2018-08-16T11:37:02.396Z,4.93
2018-08-16T11:42:05.998Z,5.33
2018-08-16T11:47:09.635Z,4.67
2018-08-16T11:52:13.339Z,5.23
2018-08-16T11:57:16.977Z,4.37
2018-08-16T12:02:20.663Z,4.40
2018-08-16T12:07:24.371Z,3.63
2018-08-16T12:12:28.037Z,4.43
2018-08-16T12:17:31.688Z,4.47
2018-08-16T12:22:35.320Z,4.37
2018-08-16T12:27:38.964Z,4.60
2018-08-16T12:32:42.701Z,4.23
2018-08-16T12:37:46.404Z,5.00
2018-08-16T12:42:50.003Z,4.50
2018-08-16T12:47:53.631Z,4.30
2018-08-16T12:52:57.332Z,4.70
2018-08-16T12:58:01.075Z,4.37
2018-08-16T13:03:04.813Z,4.03
2018-08-16T13:08:08.754Z,4.73
2018-08-16T13:13:12.553Z,4.43
2018-08-16T13:18:16.323Z,4.17
2018-08-16T13:23:20.112Z,4.20
2018-08-16T13:28:23.764Z,4.20
2018-08-16T13:33:27.888Z,4.13
2018-08-16T13:38:31.561Z,4.60
2018-08-16T13:43:35.173Z,4.70
2018-08-16T13:48:38.847Z,4.07
2018-08-16T13:53:42.368Z,4.17
2018-08-16T13:58:45.929Z,4.50
2018-08-16T14:03:49.729Z,4.87
2018-08-16T14:08:53.382Z,4.00
2018-08-16T14:13:56.998Z,4.47
2018-08-16T14:19:00.866Z,4.17
2018-08-16T14:24:05.860Z,3.90
2018-08-16T14:29:09.714Z,4.43
2018-08-16T14:34:13.375Z,3.93
2018-08-16T14:39:16.993Z,4.57
2018-08-16T14:44:20.676Z,4.37
2018-08-16T14:49:24.372Z,4.40
2018-08-16T14:54:28.043Z,4.03
2018-08-16T14:59:31.847Z,4.10
2018-08-16T15:04:35.449Z,4.40
2018-08-16T15:09:39.077Z,4.70
2018-08-16T15:14:42.654Z,4.57
2018-08-16T15:19:46.350Z,5.07
2018-08-16T15:24:49.927Z,5.33
2018-08-16T15:29:53.584Z,5.43
2018-08-16T15:34:57.254Z,5.03
2018-08-16T15:40:00.837Z,5.17
2018-08-16T15:45:04.708Z,4.87
2018-08-16T15:50:08.357Z,5.23
2018-08-16T15:55:12.025Z,4.90
2018-08-16T16:00:15.635Z,5.27
2018-08-16T16:05:19.282Z,5.10
2018-08-16T16:10:23.034Z,5.17
2018-08-16T16:15:26.669Z,5.80
2018-08-16T16:20:30.354Z,5.73
2018-08-16T16:25:34.003Z,5.40
2018-08-16T16:30:37.579Z,6.20
2018-08-16T16:35:41.150Z,6.10
2018-08-16T16:40:44.724Z,5.80
2018-08-16T16:45:48.419Z,5.20
2018-08-16T16:50:52.063Z,6.23
2018-08-16T16:55:55.830Z,5.97
2018-08-16T17:00:59.437Z,5.47
2018-08-16T17:06:03.226Z,5.43
2018-08-16T17:11:06.984Z,6.57
2018-08-16T17:16:11.062Z,6.23
2018-08-16T17:21:14.692Z,5.53
2018-08-16T17:26:18.292Z,7.20
2018-08-16T17:31:22.140Z,7.23
2018-08-16T17:36:25.822Z,7.50
2018-08-16T17:41:29.515Z,6.40
2018-08-16T17:46:33.124Z,6.80
2018-08-16T17:51:36.733Z,6.67
2018-08-16T17:56:40.601Z,7.50
2018-08-16T18:01:44.233Z,7.27
2018-08-16T18:06:47.870Z,8.43
2018-08-16T18:11:51.523Z,7.70
2018-08-16T18:16:55.078Z,7.43
2018-08-16T18:21:58.804Z,7.90
2018-08-16T18:27:02.538Z,7.00
2018-08-16T18:32:06.212Z,7.30
2018-08-16T18:37:09.814Z,7.17
2018-08-16T18:42:13.482Z,7.30
2018-08-16T18:47:17.151Z,6.53
2018-08-16T18:52:20.823Z,6.60
2018-08-16T18:57:24.444Z,6.90
2018-08-16T19:02:28.135Z,8.00
2018-08-16T19:07:31.989Z,8.37
2018-08-16T19:12:35.841Z,7.57
2018-08-16T19:17:39.721Z,7.50
2018-08-16T19:22:43.478Z,7.30
2018-08-16T19:27:47.641Z,9.23
2018-08-16T19:32:51.285Z,10.70
2018-08-16T19:37:55.023Z,7.60
2018-08-16T19:42:58.806Z,7.57
2018-08-16T19:48:02.600Z,7.03
2018-08-16T19:53:06.235Z,7.23
2018-08-16T19:58:13.535Z,6.53
2018-08-16T20:03:17.361Z,7.60
2018-08-16T20:08:21.173Z,7.13
2018-08-16T20:13:24.846Z,7.43
2018-08-16T20:18:29.580Z,7.90
2018-08-16T20:23:33.209Z,6.90
2018-08-16T20:28:36.888Z,7.13
2018-08-16T20:33:40.824Z,7.30
2018-08-16T20:38:44.470Z,7.83
2018-08-16T20:43:48.189Z,7.23
2018-08-16T20:48:51.928Z,7.77
2018-08-16T20:53:55.559Z,8.17
2018-08-16T20:58:59.190Z,7.83
2018-08-16T21:04:02.803Z,7.60
2018-08-16T21:09:08.181Z,7.87
2018-08-16T21:14:11.812Z,7.50
2018-08-16T21:19:15.488Z,8.20
2018-08-16T21:24:19.111Z,8.50
2018-08-16T21:29:22.888Z,8.37
2018-08-16T21:34:26.541Z,7.93
2018-08-16T21:39:30.170Z,8.53
2018-08-16T21:44:33.810Z,9.13
2018-08-16T21:49:37.408Z,9.47
2018-08-16T21:54:40.994Z,9.17
2018-08-16T21:59:44.592Z,8.43
2018-08-16T22:04:48.206Z,8.23
2018-08-16T22:09:51.841Z,8.43
2018-08-16T22:14:55.480Z,8.87
2018-08-16T22:19:59.138Z,9.10
2018-08-16T22:25:02.748Z,8.30
2018-08-16T22:30:06.536Z,9.03
2018-08-16T22:35:10.157Z,9.20
2018-08-16T22:40:14.181Z,8.93
2018-08-16T22:45:17.882Z,9.40
2018-08-16T22:50:21.476Z,8.40
2018-08-16T22:55:25.130Z,8.27
2018-08-16T23:00:28.784Z,8.87
2018-08-16T23:05:32.624Z,14.93
2018-08-16T23:10:36.294Z,13.67
2018-08-16T23:15:40.020Z,10.23
2018-08-16T23:20:43.604Z,8.77
2018-08-16T23:25:47.241Z,8.27
2018-08-16T23:30:50.896Z,8.50
2018-08-16T23:35:54.528Z,7.70
2018-08-16T23:40:58.174Z,8.27
2018-08-16T23:46:01.825Z,8.37
2018-08-16T23:51:05.495Z,8.20
2018-08-16T23:56:09.302Z,8.27
